Time,TemperatureF,DewpointF,PressureIn,WindDirection,WindDirectionDegrees,WindSpeedMPH,WindSpeedGustMPH,Humidity,HourlyPrecipIn,Conditions,Clouds,dailyrainin,SoftwareType,DateUTC
2013-03-14 00:00:00,30.5,18.1,0.00,SSE,158,0.0,0.0,60,0.00,,,0.00,WUHU216HW,2013-03-14 04:00:00,
2013-03-14 00:05:00,30.3,18.1,0.00,SE,135,0.0,2.4,60,0.00,,,0.00,WUHU216HW,2013-03-14 04:05:00,
2013-03-14 00:10:00,30.3,18.1,0.00,SSE,158,0.0,2.4,60,0.00,,,0.00,WUHU216HW,2013-03-14 04:10:00,
2013-03-14 00:15:00,30.3,18.1,0.00,SSE,158,0.0,0.0,60,0.00,,,0.00,WUHU216HW,2013-03-14 04:15:00,
2013-03-14 00:20:00,30.2,17.9,0.00,SW,225,0.0,4.6,60,0.00,,,0.00,WUHU216HW,2013-03-14 04:20:00,
2013-03-14 00:25:00,30.0,17.7,0.00,SE,135,0.8,0.8,60,0.00,,,0.00,WUHU216HW,2013-03-14 04:25:00,
2013-03-14 00:30:00,30.0,17.7,0.00,SE,135,0.0,0.8,60,0.00,,,0.00,WUHU216HW,2013-03-14 04:30:00,
2013-03-14 00:35:00,30.0,17.7,0.00,WNW,293,0.0,0.0,60,0.00,,,0.00,WUHU216HW,2013-03-14 04:35:00,
2013-03-14 00:40:00,29.8,17.6,0.00,NW,315,0.0,1.7,60,0.00,,,0.00,WUHU216HW,2013-03-14 04:40:00,
2013-03-14 00:45:00,29.8,17.6,0.00,East,90,0.0,1.7,60,0.00,,,0.00,WUHU216HW,2013-03-14 04:45:00,
2013-03-14 00:50:00,29.8,17.6,0.00,SSE,158,0.0,0.0,60,0.00,,,0.00,WUHU216HW,2013-03-14 04:50:00,
2013-03-14 00:55:00,29.6,17.4,0.00,ESE,113,0.0,0.0,60,0.00,,,0.00,WUHU216HW,2013-03-14 04:55:00,
2013-03-14 01:00:00,29.4,17.3,0.00,WSW,248,0.0,2.2,60,0.00,,,0.00,WUHU216HW,2013-03-14 05:00:00,
2013-03-14 01:05:00,29.4,16.8,0.00,SE,135,0.0,2.2,59,0.00,,,0.00,WUHU216HW,2013-03-14 05:05:00,
2013-03-14 01:10:00,29.3,16.7,0.00,WSW,248,0.0,0.0,59,0.00,,,0.00,WUHU216HW,2013-03-14 05:10:00,
2013-03-14 01:15:00,29.1,16.5,0.00,WSW,248,0.0,0.0,59,0.00,,,0.00,WUHU216HW,2013-03-14 05:15:00,
2013-03-14 01:20:00,29.1,16.5,0.00,SW,225,0.0,0.0,59,0.00,,,0.00,WUHU216HW,2013-03-14 05:20:00,
2013-03-14 01:25:00,29.1,16.5,0.00,ESE,113,0.0,0.0,59,0.00,,,0.00,WUHU216HW,2013-03-14 05:25:00,
2013-03-14 01:30:00,29.1,16.4,0.00,ESE,113,0.0,1.1,59,0.00,,,0.00,WUHU216HW,2013-03-14 05:30:00,
2013-03-14 01:35:00,28.9,16.4,0.00,SE,135,0.0,1.1,59,0.00,,,0.00,WUHU216HW,2013-03-14 05:35:00,
2013-03-14 01:40:00,28.9,16.8,0.00,SE,135,0.0,0.0,60,0.00,,,0.00,WUHU216HW,2013-03-14 05:40:00,
2013-03-14 01:45:00,28.7,16.6,0.00,SSE,158,0.0,0.0,60,0.00,,,0.00,WUHU216HW,2013-03-14 05:45:00,
2013-03-14 01:50:00,28.7,16.6,0.00,SSW,203,0.0,0.0,60,0.00,,,0.00,WUHU216HW,2013-03-14 05:50:00,
2013-03-14 01:55:00,28.5,16.5,0.00,SE,135,3.1,3.1,60,0.00,,,0.00,WUHU216HW,2013-03-14 05:55:00,
2013-03-14 02:00:00,28.5,16.5,0.00,SE,135,0.0,3.1,60,0.00,,,0.00,WUHU216HW,2013-03-14 06:00:00,
2013-03-14 02:10:00,28.5,16.5,0.00,SE,135,0.0,0.0,60,0.00,,,0.00,WUHU216HW,2013-03-14 06:10:00,
2013-03-14 02:15:00,28.5,16.8,0.00,WNW,293,0.0,0.0,61,0.00,,,0.00,WUHU216HW,2013-03-14 06:15:00,
2013-03-14 02:20:00,28.5,16.8,0.00,SE,135,0.0,0.4,61,0.00,,,0.00,WUHU216HW,2013-03-14 06:20:00,
2013-03-14 02:25:00,28.5,16.8,0.00,NW,315,0.0,0.4,61,0.00,,,0.00,WUHU216HW,2013-03-14 06:25:00,
2013-03-14 02:30:00,28.5,16.8,0.00,SE,135,0.0,2.2,61,0.00,,,0.00,WUHU216HW,2013-03-14 06:30:00,
2013-03-14 02:35:00,28.2,16.5,0.00,NNW,338,0.0,3.8,61,0.00,,,0.00,WUHU216HW,2013-03-14 06:35:00,
2013-03-14 02:40:00,28.2,16.5,0.00,SE,135,0.0,3.8,61,0.00,,,0.00,WUHU216HW,2013-03-14 06:40:00,
2013-03-14 02:45:00,28.2,16.5,0.00,WNW,293,0.0,0.0,61,0.00,,,0.00,WUHU216HW,2013-03-14 06:45:00,
2013-03-14 02:50:00,28.2,16.5,0.00,SSE,158,0.0,0.0,61,0.00,,,0.00,WUHU216HW,2013-03-14 06:50:00,
2013-03-14 02:55:00,28.2,16.8,0.00,SE,135,0.0,0.0,62,0.00,,,0.00,WUHU216HW,2013-03-14 06:55:00,
2013-03-14 03:00:00,28.2,16.8,0.00,SSE,158,0.0,0.0,62,0.00,,,0.00,WUHU216HW,2013-03-14 07:00:00,
2013-03-14 03:05:00,28.2,16.8,0.00,SW,225,0.0,7.8,62,0.00,,,0.00,WUHU216HW,2013-03-14 07:05:00,
2013-03-14 03:10:00,28.2,16.8,0.00,WNW,293,0.0,7.8,62,0.00,,,0.00,WUHU216HW,2013-03-14 07:10:00,
2013-03-14 03:15:00,28.2,16.8,0.00,WSW,248,0.0,3.1,62,0.00,,,0.00,WUHU216HW,2013-03-14 07:15:00,
2013-03-14 03:20:00,28.2,16.8,0.00,West,270,0.0,2.6,62,0.00,,,0.00,WUHU216HW,2013-03-14 07:20:00,
2013-03-14 03:25:00,28.2,16.8,0.00,NW,315,2.6,2.6,62,0.00,,,0.00,WUHU216HW,2013-03-14 07:25:00,
2013-03-14 03:30:00,28.2,16.8,0.00,NNW,338,0.0,2.6,62,0.00,,,0.00,WUHU216HW,2013-03-14 07:30:00,
2013-03-14 03:35:00,28.2,16.8,0.00,WSW,248,0.0,1.3,62,0.00,,,0.00,WUHU216HW,2013-03-14 07:35:00,
2013-03-14 03:40:00,28.2,16.8,0.00,WNW,293,0.0,3.3,62,0.00,,,0.00,WUHU216HW,2013-03-14 07:40:00,
2013-03-14 03:45:00,28.2,16.8,0.00,NNW,338,6.0,6.0,62,0.00,,,0.00,WUHU216HW,2013-03-14 07:45:00,
2013-03-14 03:50:00,28.0,16.7,0.00,NNW,338,2.4,6.0,62,0.00,,,0.00,WUHU216HW,2013-03-14 07:50:00,
2013-03-14 03:55:00,28.0,16.7,0.00,SE,135,0.0,3.5,62,0.00,,,0.00,WUHU216HW,2013-03-14 07:55:00,
2013-03-14 04:00:00,28.0,16.7,0.00,NW,315,7.6,7.6,62,0.00,,,0.00,WUHU216HW,2013-03-14 08:00:00,
2013-03-14 04:05:00,28.0,16.7,0.00,WSW,248,0.0,7.6,62,0.00,,,0.00,WUHU216HW,2013-03-14 08:05:00,
2013-03-14 04:10:00,28.0,17.0,0.00,SE,135,0.0,0.0,63,0.00,,,0.00,WUHU216HW,2013-03-14 08:10:00,
2013-03-14 04:15:00,28.0,17.0,0.00,NNE,23,0.0,0.0,63,0.00,,,0.00,WUHU216HW,2013-03-14 08:15:00,
2013-03-14 04:20:00,28.0,17.0,0.00,NW,315,0.0,0.0,63,0.00,,,0.00,WUHU216HW,2013-03-14 08:20:00,
2013-03-14 04:25:00,28.0,17.4,0.00,West,270,1.5,1.5,64,0.00,,,0.00,WUHU216HW,2013-03-14 08:25:00,
2013-03-14 04:30:00,28.0,17.4,0.00,ESE,113,0.0,2.6,64,0.00,,,0.00,WUHU216HW,2013-03-14 08:30:00,
2013-03-14 04:35:00,28.0,17.4,0.00,SW,225,0.0,2.6,64,0.00,,,0.00,WUHU216HW,2013-03-14 08:35:00,
2013-03-14 04:40:00,27.8,17.2,0.00,SE,135,3.8,4.4,64,0.00,,,0.00,WUHU216HW,2013-03-14 08:40:00,
2013-03-14 04:45:00,27.6,17.0,0.00,SE,135,3.8,5.5,64,0.00,,,0.00,WUHU216HW,2013-03-14 08:45:00,
2013-03-14 04:50:00,27.6,17.0,0.00,East,90,2.2,5.5,64,0.00,,,0.00,WUHU216HW,2013-03-14 08:50:00,
2013-03-14 04:55:00,27.6,17.0,0.00,SE,135,3.1,3.1,64,0.00,,,0.00,WUHU216HW,2013-03-14 08:55:00,
2013-03-14 05:00:00,27.5,16.8,0.00,North,0,0.0,3.1,64,0.00,,,0.00,WUHU216HW,2013-03-14 09:00:00,
2013-03-14 05:05:00,27.3,16.7,0.00,WNW,293,0.0,3.1,64,0.00,,,0.00,WUHU216HW,2013-03-14 09:05:00,
2013-03-14 05:10:00,27.3,16.7,0.00,SW,225,0.0,3.1,64,0.00,,,0.00,WUHU216HW,2013-03-14 09:10:00,
2013-03-14 05:15:00,27.3,16.7,0.00,NE,45,0.0,4.2,64,0.00,,,0.00,WUHU216HW,2013-03-14 09:15:00,
2013-03-14 05:20:00,27.1,16.5,0.00,SE,135,0.0,4.2,64,0.00,,,0.00,WUHU216HW,2013-03-14 09:20:00,
2013-03-14 05:25:00,27.1,16.5,0.00,NE,45,0.0,2.2,64,0.00,,,0.00,WUHU216HW,2013-03-14 09:25:00,
2013-03-14 05:30:00,27.1,16.8,0.00,West,270,0.0,0.0,65,0.00,,,0.00,WUHU216HW,2013-03-14 09:30:00,
2013-03-14 05:35:00,26.9,16.3,0.00,South,180,0.0,2.9,64,0.00,,,0.00,WUHU216HW,2013-03-14 09:35:00,
2013-03-14 05:40:00,26.9,16.1,0.00,SSE,158,0.8,2.9,64,0.00,,,0.00,WUHU216HW,2013-03-14 09:40:00,
2013-03-14 05:45:00,26.6,15.9,0.00,WSW,248,0.0,2.9,64,0.00,,,0.00,WUHU216HW,2013-03-14 09:45:00,
2013-03-14 05:50:00,26.4,15.8,0.00,SE,135,0.0,2.9,64,0.00,,,0.00,WUHU216HW,2013-03-14 09:50:00,
2013-03-14 05:55:00,26.4,15.8,0.00,SSW,203,0.0,2.9,64,0.00,,,0.00,WUHU216HW,2013-03-14 09:55:00,
2013-03-14 06:00:00,26.4,15.8,0.00,SSW,203,0.0,1.5,64,0.00,,,0.00,WUHU216HW,2013-03-14 10:00:00,
2013-03-14 06:05:00,26.4,15.8,0.00,WNW,293,0.0,0.0,64,0.00,,,0.00,WUHU216HW,2013-03-14 10:05:00,
2013-03-14 06:10:00,26.2,15.6,0.00,SE,135,2.0,2.0,64,0.00,,,0.00,WUHU216HW,2013-03-14 10:10:00,
2013-03-14 06:15:00,26.4,15.8,0.00,SSE,158,0.0,2.0,64,0.00,,,0.00,WUHU216HW,2013-03-14 10:15:00,
2013-03-14 06:20:00,26.4,15.8,0.00,SE,135,0.0,4.9,64,0.00,,,0.00,WUHU216HW,2013-03-14 10:20:00,
2013-03-14 06:25:00,26.2,15.6,0.00,SW,225,0.0,4.9,64,0.00,,,0.00,WUHU216HW,2013-03-14 10:25:00,
2013-03-14 06:30:00,26.2,15.6,0.00,ESE,113,2.9,2.9,64,0.00,,,0.00,WUHU216HW,2013-03-14 10:30:00,
2013-03-14 06:35:00,26.2,15.6,0.00,West,270,0.0,2.9,64,0.00,,,0.00,WUHU216HW,2013-03-14 10:35:00,
2013-03-14 06:40:00,26.2,15.6,0.00,SSE,158,0.0,2.6,64,0.00,,,0.00,WUHU216HW,2013-03-14 10:40:00,
2013-03-14 06:45:00,26.2,15.6,0.00,SE,135,5.1,5.1,64,0.00,,,0.00,WUHU216HW,2013-03-14 10:45:00,
2013-03-14 06:50:00,25.8,15.2,0.00,East,90,0.0,5.1,64,0.00,,,0.00,WUHU216HW,2013-03-14 10:50:00,
2013-03-14 06:55:00,25.8,15.2,0.00,SE,135,2.4,4.0,64,0.00,,,0.00,WUHU216HW,2013-03-14 10:55:00,
2013-03-14 07:00:00,25.7,15.1,0.00,SE,135,0.0,4.0,64,0.00,,,0.00,WUHU216HW,2013-03-14 11:00:00,
2013-03-14 07:05:00,25.7,15.1,0.00,WNW,293,5.3,5.3,64,0.00,,,0.00,WUHU216HW,2013-03-14 11:05:00,
2013-03-14 07:10:00,25.7,15.1,0.00,SE,135,0.0,5.3,64,0.00,,,0.00,WUHU216HW,2013-03-14 11:10:00,
2013-03-14 07:15:00,25.5,14.9,0.00,SSE,158,0.0,5.3,64,0.00,,,0.00,WUHU216HW,2013-03-14 11:15:00,
2013-03-14 07:20:00,25.5,15.3,0.00,NW,315,1.1,4.4,65,0.00,,,0.00,WUHU216HW,2013-03-14 11:20:00,
2013-03-14 07:25:00,25.5,15.3,0.00,NNW,338,0.0,2.4,65,0.00,,,0.00,WUHU216HW,2013-03-14 11:25:00,
2013-03-14 07:30:00,25.5,15.3,0.00,WNW,293,1.1,1.1,65,0.00,,,0.00,WUHU216HW,2013-03-14 11:30:00,
2013-03-14 07:35:00,25.3,15.1,0.00,SSE,158,1.3,3.1,65,0.00,,,0.00,WUHU216HW,2013-03-14 11:35:00,
2013-03-14 07:40:00,25.3,15.1,0.00,North,0,0.0,3.1,65,0.00,,,0.00,WUHU216HW,2013-03-14 11:40:00,
2013-03-14 07:45:00,25.3,15.1,0.00,ESE,113,0.0,4.2,65,0.00,,,0.00,WUHU216HW,2013-03-14 11:45:00,
2013-03-14 07:50:00,25.1,14.9,0.00,South,180,0.0,4.2,65,0.00,,,0.00,WUHU216HW,2013-03-14 11:50:00,
2013-03-14 07:55:00,25.1,15.3,0.00,SSE,158,0.0,3.8,66,0.00,,,0.00,WUHU216HW,2013-03-14 11:55:00,
2013-03-14 08:00:00,24.9,15.1,0.00,NW,315,2.2,4.0,66,0.00,,,0.00,WUHU216HW,2013-03-14 12:00:00,
2013-03-14 08:05:00,24.9,15.1,0.00,WSW,248,0.0,4.0,66,0.00,,,0.00,WUHU216HW,2013-03-14 12:05:00,
2013-03-14 08:10:00,24.9,15.1,0.00,WSW,248,0.0,2.9,66,0.00,,,0.00,WUHU216HW,2013-03-14 12:10:00,
2013-03-14 08:15:00,24.9,15.1,0.00,East,90,0.0,1.7,66,0.00,,,0.00,WUHU216HW,2013-03-14 12:15:00,
2013-03-14 08:20:00,24.9,15.1,0.00,SSE,158,0.0,3.5,66,0.00,,,0.00,WUHU216HW,2013-03-14 12:20:00,
2013-03-14 08:25:00,24.9,15.1,0.00,WNW,293,0.0,3.5,66,0.00,,,0.00,WUHU216HW,2013-03-14 12:25:00,
2013-03-14 08:30:00,24.9,15.1,0.00,South,180,1.5,1.5,66,0.00,,,0.00,WUHU216HW,2013-03-14 12:30:00,
2013-03-14 08:35:00,25.1,15.3,0.00,SSE,158,0.8,1.7,66,0.00,,,0.00,WUHU216HW,2013-03-14 12:35:00,
2013-03-14 08:40:00,25.1,15.3,0.00,SSE,158,0.0,1.7,66,0.00,,,0.00,WUHU216HW,2013-03-14 12:40:00,
2013-03-14 08:45:00,25.3,15.4,0.00,SSE,158,0.0,0.0,66,0.00,,,0.00,WUHU216HW,2013-03-14 12:45:00,
2013-03-14 08:50:00,25.5,15.6,0.00,West,270,0.0,0.0,66,0.00,,,0.00,WUHU216HW,2013-03-14 12:50:00,
2013-03-14 08:55:00,25.5,15.6,0.00,SE,135,0.0,0.0,66,0.00,,,0.00,WUHU216HW,2013-03-14 12:55:00,
2013-03-14 09:00:00,25.7,15.8,0.00,SSE,158,0.0,1.1,66,0.00,,,0.00,WUHU216HW,2013-03-14 13:00:00,
2013-03-14 09:05:00,25.8,15.9,0.00,West,270,0.4,1.1,66,0.00,,,0.00,WUHU216HW,2013-03-14 13:05:00,
2013-03-14 09:10:00,26.0,16.1,0.00,SSW,203,0.0,6.4,66,0.00,,,0.00,WUHU216HW,2013-03-14 13:10:00,
2013-03-14 09:15:00,26.2,16.3,0.00,West,270,0.0,6.4,66,0.00,,,0.00,WUHU216HW,2013-03-14 13:15:00,
2013-03-14 09:20:00,26.2,16.3,0.00,NW,315,3.3,4.0,66,0.00,,,0.00,WUHU216HW,2013-03-14 13:20:00,
2013-03-14 09:25:00,26.4,16.5,0.00,NW,315,0.0,4.0,66,0.00,,,0.00,WUHU216HW,2013-03-14 13:25:00,
2013-03-14 09:30:00,26.4,16.5,0.00,SE,135,0.0,3.5,66,0.00,,,0.00,WUHU216HW,2013-03-14 13:30:00,
2013-03-14 09:35:00,26.6,16.7,0.00,WNW,293,2.0,4.0,66,0.00,,,0.00,WUHU216HW,2013-03-14 13:35:00,
2013-03-14 09:40:00,26.7,16.8,0.00,West,270,0.0,4.0,66,0.00,,,0.00,WUHU216HW,2013-03-14 13:40:00,
2013-03-14 09:45:00,26.7,16.8,0.00,West,270,0.0,0.0,66,0.00,,,0.00,WUHU216HW,2013-03-14 13:45:00,
2013-03-14 09:50:00,27.1,17.2,0.00,SSE,158,0.0,0.0,66,0.00,,,0.00,WUHU216HW,2013-03-14 13:50:00,
2013-03-14 09:55:00,27.1,17.2,0.00,SE,135,0.0,1.7,66,0.00,,,0.00,WUHU216HW,2013-03-14 13:55:00,
2013-03-14 10:00:00,27.3,17.4,0.00,SE,135,0.0,1.7,66,0.00,,,0.00,WUHU216HW,2013-03-14 14:00:00,
2013-03-14 10:05:00,27.5,17.2,0.00,West,270,0.0,1.5,65,0.00,,,0.00,WUHU216HW,2013-03-14 14:05:00,
2013-03-14 10:10:00,27.5,17.2,0.00,WNW,293,2.6,2.6,65,0.00,,,0.00,WUHU216HW,2013-03-14 14:10:00,
2013-03-14 10:15:00,27.6,17.4,0.00,SW,225,0.0,5.8,65,0.00,,,0.00,WUHU216HW,2013-03-14 14:15:00,
2013-03-14 10:20:00,27.6,17.4,0.00,WNW,293,0.0,5.8,65,0.00,,,0.00,WUHU216HW,2013-03-14 14:20:00,
2013-03-14 10:25:00,27.8,17.6,0.00,South,180,0.0,3.8,65,0.00,,,0.00,WUHU216HW,2013-03-14 14:25:00,
2013-03-14 10:30:00,28.0,17.7,0.00,South,180,0.0,2.2,65,0.00,,,0.00,WUHU216HW,2013-03-14 14:30:00,
2013-03-14 10:35:00,28.2,17.9,0.00,South,180,2.6,3.5,65,0.00,,,0.00,WUHU216HW,2013-03-14 14:35:00,
2013-03-14 10:40:00,28.5,18.3,0.00,SE,135,1.5,7.6,65,0.00,,,0.00,WUHU216HW,2013-03-14 14:40:00,
2013-03-14 10:45:00,28.5,18.3,0.00,SSE,158,1.3,7.6,65,0.00,,,0.00,WUHU216HW,2013-03-14 14:45:00,
2013-03-14 10:50:00,28.9,18.6,0.00,West,270,0.0,1.7,65,0.00,,,0.00,WUHU216HW,2013-03-14 14:50:00,
2013-03-14 10:55:00,29.1,18.4,0.00,North,0,0.0,1.7,64,0.00,,,0.00,WUHU216HW,2013-03-14 14:55:00,
2013-03-14 11:00:00,29.3,18.5,0.00,SSW,203,0.0,1.7,64,0.00,,,0.00,WUHU216HW,2013-03-14 15:00:00,
2013-03-14 11:05:00,29.6,18.9,0.00,SSE,158,2.2,2.2,64,0.00,,,0.00,WUHU216HW,2013-03-14 15:05:00,
2013-03-14 11:10:00,30.0,18.8,0.00,SE,135,2.0,3.8,63,0.00,,,0.00,WUHU216HW,2013-03-14 15:10:00,
2013-03-14 11:15:00,30.2,19.0,0.00,WSW,248,0.0,3.8,63,0.00,,,0.00,WUHU216HW,2013-03-14 15:15:00,
2013-03-14 11:20:00,30.5,19.4,0.00,South,180,0.0,2.9,63,0.00,,,0.00,WUHU216HW,2013-03-14 15:20:00,
2013-03-14 11:25:00,30.7,19.2,0.00,SSE,158,3.8,3.8,62,0.00,,,0.00,WUHU216HW,2013-03-14 15:25:00,
2013-03-14 11:30:00,31.2,19.7,0.00,SE,135,0.0,3.8,62,0.00,,,0.00,WUHU216HW,2013-03-14 15:30:00,
2013-03-14 11:35:00,31.6,19.7,0.00,SE,135,0.0,3.1,61,0.00,,,0.00,WUHU216HW,2013-03-14 15:35:00,
2013-03-14 11:40:00,31.8,19.9,0.00,ESE,113,0.0,3.1,61,0.00,,,0.00,WUHU216HW,2013-03-14 15:40:00,
2013-03-14 11:45:00,32.3,20.0,0.00,SSE,158,0.0,2.2,60,0.00,,,0.00,WUHU216HW,2013-03-14 15:45:00,
2013-03-14 11:50:00,32.7,20.4,0.00,SW,225,0.0,5.5,60,0.00,,,0.00,WUHU216HW,2013-03-14 15:50:00,
2013-03-14 11:55:00,33.4,20.3,0.00,WNW,293,0.0,5.5,59,0.00,,,0.00,WUHU216HW,2013-03-14 15:55:00,
2013-03-14 12:00:00,33.6,20.3,0.00,SE,135,0.0,6.7,58,0.00,,,0.00,WUHU216HW,2013-03-14 16:00:00,
2013-03-14 12:05:00,34.1,20.4,0.00,WSW,248,0.0,6.7,57,0.00,,,0.00,WUHU216HW,2013-03-14 16:05:00,
2013-03-14 12:10:00,34.1,20.0,0.00,West,270,0.0,1.5,56,0.00,,,0.00,WUHU216HW,2013-03-14 16:10:00,
2013-03-14 12:15:00,34.3,20.6,0.00,South,180,0.0,1.1,57,0.00,,,0.00,WUHU216HW,2013-03-14 16:15:00,
2013-03-14 12:20:00,34.3,20.1,0.00,NW,315,0.0,0.0,56,0.00,,,0.00,WUHU216HW,2013-03-14 16:20:00,
2013-03-14 12:25:00,34.8,20.7,0.00,SSE,158,0.0,4.0,56,0.00,,,0.00,WUHU216HW,2013-03-14 16:25:00,
2013-03-14 12:30:00,34.8,20.3,0.00,SE,135,1.5,4.9,55,0.00,,,0.00,WUHU216HW,2013-03-14 16:30:00,
2013-03-14 12:35:00,35.2,20.6,0.00,SSW,203,1.5,4.9,55,0.00,,,0.00,WUHU216HW,2013-03-14 16:35:00,
2013-03-14 12:40:00,35.4,20.4,0.00,WNW,293,2.6,4.4,54,0.00,,,0.00,WUHU216HW,2013-03-14 16:40:00,
2013-03-14 12:45:00,35.7,20.7,0.00,NW,315,0.0,4.4,54,0.00,,,0.00,WUHU216HW,2013-03-14 16:45:00,
2013-03-14 12:50:00,36.1,20.4,0.00,SE,135,2.0,2.0,53,0.00,,,0.00,WUHU216HW,2013-03-14 16:50:00,
2013-03-14 12:55:00,36.3,20.3,0.00,NNW,338,0.0,2.9,52,0.00,,,0.00,WUHU216HW,2013-03-14 16:55:00,
2013-03-14 13:00:00,36.5,20.1,0.00,West,270,0.0,3.1,51,0.00,,,0.00,WUHU216HW,2013-03-14 17:00:00,
2013-03-14 13:05:00,36.6,20.2,0.00,SSE,158,2.2,4.9,51,0.00,,,0.00,WUHU216HW,2013-03-14 17:05:00,
2013-03-14 13:10:00,37.2,20.3,0.00,North,0,0.0,4.9,50,0.00,,,0.00,WUHU216HW,2013-03-14 17:10:00,
2013-03-14 13:15:00,37.5,20.1,0.00,SSW,203,0.0,2.6,49,0.00,,,0.00,WUHU216HW,2013-03-14 17:15:00,
2013-03-14 13:20:00,37.7,20.2,0.00,SW,225,2.0,2.0,49,0.00,,,0.00,WUHU216HW,2013-03-14 17:20:00,
2013-03-14 13:25:00,38.1,20.6,0.00,SE,135,0.0,2.0,49,0.00,,,0.00,WUHU216HW,2013-03-14 17:25:00,
2013-03-14 13:30:00,38.8,21.2,0.00,West,270,2.0,2.0,49,0.00,,,0.00,WUHU216HW,2013-03-14 17:30:00,
2013-03-14 13:35:00,39.0,20.3,0.00,WNW,293,2.6,2.6,47,0.00,,,0.00,WUHU216HW,2013-03-14 17:35:00,
2013-03-14 13:40:00,39.3,20.6,0.00,SE,135,1.7,8.9,47,0.00,,,0.00,WUHU216HW,2013-03-14 17:40:00,
2013-03-14 13:45:00,39.9,21.7,0.00,ENE,68,4.2,8.9,48,0.00,,,0.00,WUHU216HW,2013-03-14 17:45:00,
2013-03-14 13:50:00,40.6,21.3,0.00,North,0,0.0,8.2,46,0.00,,,0.00,WUHU216HW,2013-03-14 17:50:00,
2013-03-14 13:55:00,41.0,21.9,0.00,South,180,1.3,8.2,47,0.00,,,0.00,WUHU216HW,2013-03-14 17:55:00,
2013-03-14 14:00:00,41.3,22.4,0.00,NW,315,0.0,1.3,47,0.00,,,0.00,WUHU216HW,2013-03-14 18:00:00,
2013-03-14 14:05:00,41.5,22.1,0.00,SSE,158,2.2,4.2,46,0.00,,,0.00,WUHU216HW,2013-03-14 18:05:00,
2013-03-14 14:10:00,41.9,22.4,0.00,SSE,158,0.0,4.2,46,0.00,,,0.00,WUHU216HW,2013-03-14 18:10:00,
2013-03-14 14:15:00,42.4,23.0,0.00,SSE,158,4.2,6.2,46,0.00,,,0.00,WUHU216HW,2013-03-14 18:15:00,
2013-03-14 14:20:00,42.8,22.6,0.00,SE,135,0.0,6.2,45,0.00,,,0.00,WUHU216HW,2013-03-14 18:20:00,
2013-03-14 14:25:00,42.9,22.9,0.00,SSE,158,3.1,6.7,45,0.00,,,0.00,WUHU216HW,2013-03-14 18:25:00,
2013-03-14 14:30:00,43.3,23.3,0.00,SSE,158,1.7,6.7,45,0.00,,,0.00,WUHU216HW,2013-03-14 18:30:00,
2013-03-14 14:35:00,43.5,23.4,0.00,SSE,158,5.8,5.8,45,0.00,,,0.00,WUHU216HW,2013-03-14 18:35:00,
2013-03-14 14:40:00,43.3,23.3,0.00,SE,135,4.2,5.8,45,0.00,,,0.00,WUHU216HW,2013-03-14 18:40:00,
2013-03-14 14:45:00,43.3,23.3,0.00,NW,315,0.0,4.2,45,0.00,,,0.00,WUHU216HW,2013-03-14 18:45:00,
2013-03-14 14:50:00,43.5,23.4,0.00,SE,135,3.8,4.9,45,0.00,,,0.00,WUHU216HW,2013-03-14 18:50:00,
2013-03-14 14:55:00,43.7,23.6,0.00,SSE,158,2.9,5.5,45,0.00,,,0.00,WUHU216HW,2013-03-14 18:55:00,
2013-03-14 15:00:00,43.5,23.4,0.00,SSE,158,4.0,5.5,45,0.00,,,0.00,WUHU216HW,2013-03-14 19:00:00,
2013-03-14 15:05:00,43.5,22.9,0.00,SSE,158,6.2,6.2,44,0.00,,,0.00,WUHU216HW,2013-03-14 19:05:00,
2013-03-14 15:10:00,43.5,22.9,0.00,South,180,0.0,6.2,44,0.00,,,0.00,WUHU216HW,2013-03-14 19:10:00,
2013-03-14 15:15:00,43.3,22.7,0.00,SW,225,2.0,5.3,44,0.00,,,0.00,WUHU216HW,2013-03-14 19:15:00,
2013-03-14 15:20:00,43.3,22.7,0.00,SSE,158,4.2,4.2,44,0.00,,,0.00,WUHU216HW,2013-03-14 19:20:00,
2013-03-14 15:25:00,43.3,22.7,0.00,North,0,0.0,6.2,44,0.00,,,0.00,WUHU216HW,2013-03-14 19:25:00,
2013-03-14 15:30:00,43.5,22.9,0.00,SSE,158,0.0,6.2,44,0.00,,,0.00,WUHU216HW,2013-03-14 19:30:00,
2013-03-14 15:35:00,43.3,22.7,0.00,SE,135,3.1,3.1,44,0.00,,,0.00,WUHU216HW,2013-03-14 19:35:00,
2013-03-14 15:40:00,43.3,22.7,0.00,SSE,158,2.4,5.1,44,0.00,,,0.00,WUHU216HW,2013-03-14 19:40:00,
2013-03-14 15:45:00,43.3,22.2,0.00,North,0,0.0,5.1,43,0.00,,,0.00,WUHU216HW,2013-03-14 19:45:00,
2013-03-14 15:50:00,43.3,22.7,0.00,SSE,158,6.2,6.2,44,0.00,,,0.00,WUHU216HW,2013-03-14 19:50:00,
2013-03-14 15:55:00,43.5,22.9,0.00,SSE,158,1.1,6.2,44,0.00,,,0.00,WUHU216HW,2013-03-14 19:55:00,
2013-03-14 16:00:00,43.5,22.3,0.00,SSE,158,4.9,7.8,43,0.00,,,0.00,WUHU216HW,2013-03-14 20:00:00,
2013-03-14 16:05:00,43.5,22.3,0.00,SSE,158,0.6,7.8,43,0.00,,,0.00,WUHU216HW,2013-03-14 20:05:00,
2013-03-14 16:10:00,43.5,22.2,0.00,SSE,158,4.0,4.4,43,0.00,,,0.00,WUHU216HW,2013-03-14 20:10:00,
2013-03-14 16:15:00,43.5,22.9,0.00,SSE,158,2.6,4.9,44,0.00,,,0.00,WUHU216HW,2013-03-14 20:15:00,
2013-03-14 16:20:00,43.7,23.0,0.00,WSW,248,0.0,4.9,44,0.00,,,0.00,WUHU216HW,2013-03-14 20:20:00,
2013-03-14 16:25:00,43.8,22.7,0.00,SSE,158,4.9,4.9,43,0.00,,,0.00,WUHU216HW,2013-03-14 20:25:00,
2013-03-14 16:30:00,44.2,23.0,0.00,SSE,158,1.1,4.9,43,0.00,,,0.00,WUHU216HW,2013-03-14 20:30:00,
2013-03-14 16:35:00,44.2,22.4,0.00,SSE,158,0.0,6.4,42,0.00,,,0.00,WUHU216HW,2013-03-14 20:35:00,
2013-03-14 16:40:00,43.8,22.1,0.00,SE,135,0.0,6.4,42,0.00,,,0.00,WUHU216HW,2013-03-14 20:40:00,
2013-03-14 16:45:00,43.5,21.8,0.00,SSE,158,2.2,6.2,42,0.00,,,0.00,WUHU216HW,2013-03-14 20:45:00,
2013-03-14 16:50:00,43.3,22.2,0.00,SSE,158,2.4,8.5,43,0.00,,,0.00,WUHU216HW,2013-03-14 20:50:00,
2013-03-14 16:55:00,43.1,22.0,0.00,SSE,158,0.0,8.5,43,0.00,,,0.00,WUHU216HW,2013-03-14 20:55:00,
2013-03-14 17:00:00,43.1,22.0,0.00,SSE,158,0.0,2.9,43,0.00,,,0.00,WUHU216HW,2013-03-14 21:00:00,
2013-03-14 17:05:00,43.1,22.2,0.00,SSE,158,0.6,6.4,43,0.00,,,0.00,WUHU216HW,2013-03-14 21:05:00,
2013-03-14 17:10:00,43.1,21.5,0.00,WNW,293,0.0,6.4,42,0.00,,,0.00,WUHU216HW,2013-03-14 21:10:00,
2013-03-14 17:15:00,42.9,21.3,0.00,NW,315,0.0,4.0,42,0.00,,,0.00,WUHU216HW,2013-03-14 21:15:00,
2013-03-14 17:20:00,42.9,21.3,0.00,SE,135,4.0,4.0,42,0.00,,,0.00,WUHU216HW,2013-03-14 21:20:00,
2013-03-14 17:25:00,42.9,21.9,0.00,SSE,158,0.0,4.2,43,0.00,,,0.00,WUHU216HW,2013-03-14 21:25:00,
2013-03-14 17:30:00,42.6,21.5,0.00,WNW,293,3.5,4.2,43,0.00,,,0.00,WUHU216HW,2013-03-14 21:30:00,
2013-03-14 17:35:00,42.6,21.5,0.00,SE,135,4.2,4.2,43,0.00,,,0.00,WUHU216HW,2013-03-14 21:35:00,
2013-03-14 17:40:00,42.4,21.3,0.00,SW,225,0.0,4.9,43,0.00,,,0.00,WUHU216HW,2013-03-14 21:40:00,
2013-03-14 17:45:00,42.4,21.3,0.00,SSE,158,0.0,4.9,43,0.00,,,0.00,WUHU216HW,2013-03-14 21:45:00,
2013-03-14 17:50:00,42.0,21.5,0.00,SE,135,0.0,4.0,44,0.00,,,0.00,WUHU216HW,2013-03-14 21:50:00,
2013-03-14 17:55:00,42.0,21.5,0.00,SSE,158,3.5,3.5,44,0.00,,,0.00,WUHU216HW,2013-03-14 21:55:00,
2013-03-14 18:00:00,42.0,21.5,0.00,SW,225,0.0,3.5,44,0.00,,,0.00,WUHU216HW,2013-03-14 22:00:00,
2013-03-14 18:05:00,41.9,21.4,0.00,South,180,0.0,2.4,44,0.00,,,0.00,WUHU216HW,2013-03-14 22:05:00,
2013-03-14 18:10:00,41.9,21.4,0.00,SSW,203,0.0,0.0,44,0.00,,,0.00,WUHU216HW,2013-03-14 22:10:00,
2013-03-14 18:15:00,41.7,21.2,0.00,North,0,3.5,3.5,44,0.00,,,0.00,WUHU216HW,2013-03-14 22:15:00,
2013-03-14 18:20:00,41.7,21.2,0.00,SE,135,0.0,3.5,44,0.00,,,0.00,WUHU216HW,2013-03-14 22:20:00,
2013-03-14 18:25:00,41.5,21.0,0.00,South,180,0.0,0.0,44,0.00,,,0.00,WUHU216HW,2013-03-14 22:25:00,
2013-03-14 18:30:00,41.5,21.0,0.00,South,180,0.0,0.0,44,0.00,,,0.00,WUHU216HW,2013-03-14 22:30:00,
2013-03-14 18:35:00,41.3,21.4,0.00,SW,225,0.0,0.0,45,0.00,,,0.00,WUHU216HW,2013-03-14 22:35:00,
2013-03-14 18:40:00,41.1,21.2,0.00,SSE,158,0.0,1.7,45,0.00,,,0.00,WUHU216HW,2013-03-14 22:40:00,
2013-03-14 18:45:00,40.8,20.9,0.00,SSE,158,0.0,1.7,45,0.00,,,0.00,WUHU216HW,2013-03-14 22:45:00,
2013-03-14 18:50:00,40.8,20.9,0.00,West,270,0.0,0.6,45,0.00,,,0.00,WUHU216HW,2013-03-14 22:50:00,
2013-03-14 18:55:00,40.6,20.7,0.00,NE,45,0.0,0.0,45,0.00,,,0.00,WUHU216HW,2013-03-14 22:55:00,
2013-03-14 19:00:00,40.4,20.1,0.00,SSW,203,0.0,4.6,44,0.00,,,0.00,WUHU216HW,2013-03-14 23:00:00,
2013-03-14 19:05:00,40.2,20.4,0.00,SSE,158,0.0,4.6,45,0.00,,,0.00,WUHU216HW,2013-03-14 23:05:00,
2013-03-14 19:10:00,39.9,20.1,0.00,West,270,0.0,2.4,45,0.00,,,0.00,WUHU216HW,2013-03-14 23:10:00,
2013-03-14 19:15:00,39.9,20.1,0.00,West,270,0.0,0.0,45,0.00,,,0.00,WUHU216HW,2013-03-14 23:15:00,
2013-03-14 19:20:00,39.7,19.9,0.00,NW,315,0.0,0.0,45,0.00,,,0.00,WUHU216HW,2013-03-14 23:20:00,
2013-03-14 19:25:00,39.5,19.8,0.00,NW,315,0.0,0.0,45,0.00,,,0.00,WUHU216HW,2013-03-14 23:25:00,
2013-03-14 19:30:00,39.3,19.6,0.00,NW,315,0.0,0.0,46,0.00,,,0.00,WUHU216HW,2013-03-14 23:30:00,
2013-03-14 19:35:00,39.0,20.1,0.00,WNW,293,0.0,0.0,46,0.00,,,0.00,WUHU216HW,2013-03-14 23:35:00,
2013-03-14 19:40:00,39.0,19.8,0.00,WNW,293,0.0,0.0,46,0.00,,,0.00,WUHU216HW,2013-03-14 23:40:00,
2013-03-14 19:45:00,38.8,19.6,0.00,WNW,293,0.0,0.0,46,0.00,,,0.00,WUHU216HW,2013-03-14 23:45:00,
2013-03-14 19:50:00,38.4,19.8,0.00,SE,135,0.0,0.0,47,0.00,,,0.00,WUHU216HW,2013-03-14 23:50:00,
2013-03-14 19:55:00,38.3,19.7,0.00,SE,135,0.0,0.0,47,0.00,,,0.00,WUHU216HW,2013-03-14 23:55:00,
2013-03-14 20:00:00,37.9,19.4,0.00,SE,135,0.0,0.0,47,0.00,,,0.00,WUHU216HW,2013-03-15 00:00:00,
2013-03-14 20:05:00,37.7,19.2,0.00,SE,135,0.0,0.0,47,0.00,,,0.00,WUHU216HW,2013-03-15 00:05:00,
2013-03-14 20:10:00,37.5,19.5,0.00,SE,135,0.0,0.0,48,0.00,,,0.00,WUHU216HW,2013-03-15 00:10:00,
2013-03-14 20:15:00,37.2,19.2,0.00,SE,135,0.0,0.0,48,0.00,,,0.00,WUHU216HW,2013-03-15 00:15:00,
2013-03-14 20:20:00,37.0,19.1,0.00,SE,135,0.0,0.0,48,0.00,,,0.00,WUHU216HW,2013-03-15 00:20:00,
2013-03-14 20:25:00,37.0,19.1,0.00,SE,135,0.0,0.0,48,0.00,,,0.00,WUHU216HW,2013-03-15 00:25:00,
2013-03-14 20:30:00,36.8,19.4,0.00,SE,135,0.0,0.0,49,0.00,,,0.00,WUHU216HW,2013-03-15 00:30:00,
2013-03-14 20:35:00,36.6,19.3,0.00,SE,135,0.0,0.0,49,0.00,,,0.00,WUHU216HW,2013-03-15 00:35:00,
2013-03-14 20:40:00,36.5,19.1,0.00,SE,135,0.0,0.0,49,0.00,,,0.00,WUHU216HW,2013-03-15 00:40:00,
2013-03-14 20:45:00,36.3,18.9,0.00,SE,135,0.0,0.0,49,0.00,,,0.00,WUHU216HW,2013-03-15 00:45:00,
2013-03-14 20:50:00,36.3,18.9,0.00,SE,135,0.0,0.0,49,0.00,,,0.00,WUHU216HW,2013-03-15 00:50:00,
2013-03-14 20:55:00,36.1,18.8,0.00,SE,135,0.0,0.0,49,0.00,,,0.00,WUHU216HW,2013-03-15 00:55:00,
2013-03-14 21:00:00,35.9,19.1,0.00,SE,135,0.0,0.0,50,0.00,,,0.00,WUHU216HW,2013-03-15 01:00:00,
2013-03-14 21:05:00,35.7,18.5,0.00,SE,135,0.0,0.0,49,0.00,,,0.00,WUHU216HW,2013-03-15 01:05:00,
2013-03-14 21:10:00,35.7,18.5,0.00,SE,135,0.0,0.0,49,0.00,,,0.00,WUHU216HW,2013-03-15 01:10:00,
2013-03-14 21:15:00,35.4,18.1,0.00,SE,135,0.0,0.0,49,0.00,,,0.00,WUHU216HW,2013-03-15 01:15:00,
2013-03-14 21:20:00,35.4,18.6,0.00,SE,135,0.0,0.0,50,0.00,,,0.00,WUHU216HW,2013-03-15 01:20:00,
2013-03-14 21:25:00,35.2,18.5,0.00,SE,135,0.0,0.0,50,0.00,,,0.00,WUHU216HW,2013-03-15 01:25:00,
2013-03-14 21:30:00,35.0,18.3,0.00,SE,135,0.0,0.0,50,0.00,,,0.00,WUHU216HW,2013-03-15 01:30:00,
2013-03-14 21:35:00,34.8,18.1,0.00,SE,135,0.0,0.0,50,0.00,,,0.00,WUHU216HW,2013-03-15 01:35:00,
2013-03-14 21:40:00,34.8,18.1,0.00,NE,45,21.9,21.9,50,0.00,,,0.00,WUHU216HW,2013-03-15 01:40:00,
2013-03-14 21:45:00,34.7,18.3,0.00,SE,135,0.0,21.9,51,0.00,,,0.00,WUHU216HW,2013-03-15 01:45:00,
2013-03-14 21:50:00,34.5,18.2,0.00,SE,135,0.0,0.0,51,0.00,,,0.00,WUHU216HW,2013-03-15 01:50:00,
2013-03-14 21:55:00,34.3,18.0,0.00,SE,135,0.0,0.0,51,0.00,,,0.00,WUHU216HW,2013-03-15 01:55:00,
2013-03-14 22:00:00,34.3,18.0,0.00,SE,135,0.0,0.0,51,0.00,,,0.00,WUHU216HW,2013-03-15 02:00:00,
2013-03-14 22:05:00,34.1,17.8,0.00,SE,135,0.0,0.0,51,0.00,,,0.00,WUHU216HW,2013-03-15 02:05:00,
2013-03-14 22:10:00,33.9,17.6,0.00,SE,135,0.0,0.0,51,0.00,,,0.00,WUHU216HW,2013-03-15 02:10:00,
2013-03-14 22:15:00,33.9,17.6,0.00,SE,135,0.0,0.0,51,0.00,,,0.00,WUHU216HW,2013-03-15 02:15:00,
2013-03-14 22:20:00,33.6,17.7,0.00,SE,135,0.0,0.0,52,0.00,,,0.00,WUHU216HW,2013-03-15 02:20:00,
2013-03-14 22:25:00,33.6,17.7,0.00,SE,135,0.0,0.0,52,0.00,,,0.00,WUHU216HW,2013-03-15 02:25:00,
2013-03-14 22:30:00,33.4,17.6,0.00,SE,135,0.0,0.0,52,0.00,,,0.00,WUHU216HW,2013-03-15 02:30:00,
2013-03-14 22:35:00,33.2,17.4,0.00,SE,135,0.0,0.0,52,0.00,,,0.00,WUHU216HW,2013-03-15 02:35:00,
2013-03-14 22:40:00,33.0,17.2,0.00,SE,135,0.0,0.0,52,0.00,,,0.00,WUHU216HW,2013-03-15 02:40:00,
2013-03-14 22:45:00,32.9,17.1,0.00,SE,135,0.0,0.0,52,0.00,,,0.00,WUHU216HW,2013-03-15 02:45:00,
2013-03-14 22:50:00,32.7,16.9,0.00,SE,135,0.0,0.0,52,0.00,,,0.00,WUHU216HW,2013-03-15 02:50:00,
2013-03-14 22:55:00,32.5,16.7,0.00,SE,135,0.0,0.0,52,0.00,,,0.00,WUHU216HW,2013-03-15 02:55:00,
2013-03-14 23:00:00,32.1,16.8,0.00,SE,135,0.0,0.0,53,0.00,,,0.00,WUHU216HW,2013-03-15 03:00:00,
2013-03-14 23:05:00,32.1,16.8,0.00,SE,135,0.0,0.0,53,0.00,,,0.00,WUHU216HW,2013-03-15 03:05:00,
2013-03-14 23:10:00,32.1,16.8,0.00,SE,135,0.0,0.0,53,0.00,,,0.00,WUHU216HW,2013-03-15 03:10:00,
2013-03-14 23:15:00,31.8,16.5,0.00,SE,135,0.0,0.0,53,0.00,,,0.00,WUHU216HW,2013-03-15 03:15:00,
2013-03-14 23:20:00,31.8,16.5,0.00,SE,135,0.0,0.0,53,0.00,,,0.00,WUHU216HW,2013-03-15 03:20:00,
2013-03-14 23:25:00,31.8,16.5,0.00,SE,135,0.0,0.0,53,0.00,,,0.00,WUHU216HW,2013-03-15 03:25:00,
2013-03-14 23:30:00,31.6,16.8,0.00,SE,135,0.0,0.0,54,0.00,,,0.00,WUHU216HW,2013-03-15 03:30:00,
2013-03-14 23:35:00,31.6,16.8,0.00,SE,135,0.0,0.0,54,0.00,,,0.00,WUHU216HW,2013-03-15 03:35:00,
2013-03-14 23:40:00,31.6,16.8,0.00,SE,135,0.0,0.0,54,0.00,,,0.00,WUHU216HW,2013-03-15 03:40:00,
2013-03-14 23:45:00,31.6,16.8,0.00,SE,135,0.0,0.0,54,0.00,,,0.00,WUHU216HW,2013-03-15 03:45:00,
2013-03-14 23:50:00,31.6,17.2,0.00,SE,135,0.0,0.0,55,0.00,,,0.00,WUHU216HW,2013-03-15 03:50:00,
2013-03-14 23:55:00,31.2,16.9,0.00,SE,135,0.0,0.0,55,0.00,,,0.00,WUHU216HW,2013-03-15 03:55:00,